Terminal Aerodrome Forecast
Issued by NWS

Home | Current Version | Previous Version | Text Only | Print | Product List | Glossary On
Versions: 1 2 3 4 5 6 7 8 9 10 11 12 13 14 15 16 17 18
236
FTUS46 KEKA 262136 CCA
TAFUKI
TAF COR
KUKI 262136Z 2621/2718 14010G22KT P6SM BKN030
      TEMPO 2622/2701 SCT030
     FM270400 VRB03KT P6SM OVC020
     FM271500 18003KT P6SM BKN012 OVC025=

USA.gov is the U.S. government's official web portal to all federal, state and local government web resources and services.